Time;durP1;ratioP1;P1;durP2;ratioP2;P2;SDS_P1;SDS_P2;PMS_P1;PMS_P2;Temp;Humidity;BMP_temperature;BMP_pressure;BME280_temperature;BME280_humidity;BME280_pressure;Samples;Min_cycle;Max_cycle;Signal;HPM_P1;HPM_P2
2022/12/29 00:01:36;;;;;;;2.80;1.20;;;;;;;12.27;53.88;99158.16;6060280;23;20185;-85
2022/12/29 00:04:01;;;;;;;3.65;1.70;;;;;;;12.32;53.81;99166.56;6037808;23;20729;-85
2022/12/29 00:06:27;;;;;;;2.57;1.10;;;;;;;12.34;53.40;99153.25;6061096;23;20181;-85
2022/12/29 00:08:53;;;;;;;2.60;1.13;;;;;;;12.41;53.30;99154.44;6062025;23;20185;-85
2022/12/29 00:11:20;;;;;;;1.90;1.80;;;;;;;12.46;52.98;99160.19;6064399;23;20199;-86
2022/12/29 00:16:32;;;;;;;2.55;1.15;;;;;;;12.53;52.57;99153.50;6062281;23;20180;-86
2022/12/29 00:18:58;;;;;;;2.33;1.60;;;;;;;12.57;52.08;99154.91;6062462;23;20189;-86
2022/12/29 00:35:18;;;;;;;2.72;1.40;;;;;;;12.69;52.23;99165.44;6034851;23;20437;-87
2022/12/29 00:45:58;;;;;;;1.70;1.05;;;;;;;12.65;52.07;99156.13;6036217;23;20205;-86
2022/12/29 00:51:07;;;;;;;3.28;1.10;;;;;;;12.73;51.81;99148.44;6062136;23;20204;-86
2022/12/29 00:53:34;;;;;;;1.37;0.87;;;;;;;12.77;51.64;99145.44;6035937;23;20205;-86
2022/12/29 00:55:59;;;;;;;3.13;1.63;;;;;;;12.82;51.22;99150.31;6084688;23;20205;-86
2022/12/29 00:58:28;;;;;;;1.97;1.00;;;;;;;12.86;50.78;99141.22;6091269;23;20239;-86
2022/12/29 01:01:05;;;;;;;2.60;1.00;;;;;;;12.94;50.83;99159.06;6090847;23;20411;-86
2022/12/29 01:03:32;;;;;;;1.70;1.13;;;;;;;12.99;50.53;99159.53;6065016;23;20183;-86
2022/12/29 01:06:01;;;;;;;1.60;0.90;;;;;;;13.02;50.29;99154.00;6091139;23;20208;-86
2022/12/29 01:08:30;;;;;;;1.67;1.00;;;;;;;13.07;50.06;99157.13;6090184;23;20200;-86
2022/12/29 01:11:07;;;;;;;2.70;1.20;;;;;;;13.13;49.75;99161.03;6088568;23;20312;-86
2022/12/29 01:13:32;;;;;;;1.20;1.08;;;;;;;13.16;49.78;99164.25;6089288;23;20188;-86
2022/12/29 01:15:58;;;;;;;1.80;1.30;;;;;;;13.23;49.43;99173.34;6064308;23;20339;-87
2022/12/29 01:18:27;;;;;;;1.20;1.10;;;;;;;13.26;49.32;99174.94;6091558;23;20179;-87
2022/12/29 01:21:05;;;;;;;3.42;1.10;;;;;;;13.26;49.36;99181.06;6091021;23;20180;-86
2022/12/29 01:23:31;;;;;;;2.42;1.38;;;;;;;13.25;49.43;99179.31;6064665;23;20200;-86
2022/12/29 01:25:57;;;;;;;1.15;1.05;;;;;;;13.25;49.40;99181.97;6090397;23;20647;-87
2022/12/29 01:28:23;;;;;;;1.38;1.20;;;;;;;13.26;49.35;99177.59;6064537;23;20200;-86
2022/12/29 01:30:48;;;;;;;2.27;1.10;;;;;;;13.26;49.26;99172.31;6090398;23;20219;-86
2022/12/29 01:33:14;;;;;;;0.80;0.80;;;;;;;13.27;49.21;99179.25;6065206;23;20183;-86
2022/12/29 01:35:40;;;;;;;2.90;1.10;;;;;;;13.33;49.10;99183.19;6064360;23;20203;-86
2022/12/29 01:38:05;;;;;;;2.00;1.30;;;;;;;13.34;48.93;99184.84;6064667;23;20419;-86
2022/12/29 01:40:31;;;;;;;2.77;1.00;;;;;;;13.35;48.98;99197.91;6064588;23;20606;-87
2022/12/29 01:42:57;;;;;;;3.33;1.20;;;;;;;13.37;48.87;99180.16;6040613;23;20278;-86
2022/12/29 01:45:22;;;;;;;2.70;1.27;;;;;;;13.37;48.82;99190.72;6088377;23;20937;-86
2022/12/29 01:47:53;;;;;;;1.00;0.90;;;;;;;13.34;49.33;99190.97;6090470;23;20198;-87
2022/12/29 01:50:37;;;;;;;1.67;1.27;;;;;;;13.31;49.26;99196.47;6090687;23;20204;-87
2022/12/29 01:53:09;;;;;;;3.20;1.35;;;;;;;13.32;49.20;99192.91;6089771;23;20181;-86
2022/12/29 01:55:40;;;;;;;3.45;1.00;;;;;;;13.31;49.48;99190.38;6089476;23;20228;-86
2022/12/29 01:58:07;;;;;;;1.80;1.00;;;;;;;13.29;49.51;99187.88;6064740;23;20179;-86
2022/12/29 02:00:33;;;;;;;2.45;1.15;;;;;;;13.25;49.64;99189.03;6064571;23;20181;-86
2022/12/29 02:02:58;;;;;;;2.13;1.00;;;;;;;13.25;49.63;99191.69;6093114;23;20240;-86
2022/12/29 02:05:36;;;;;;;4.97;1.10;;;;;;;13.26;49.67;99193.41;6089904;23;20665;-86
2022/12/29 02:08:02;;;;;;;1.83;1.40;;;;;;;13.27;49.42;99185.34;6064953;23;20225;-84
2022/12/29 02:10:29;;;;;;;3.20;1.42;;;;;;;13.30;49.36;99194.81;6089669;23;20180;-83
2022/12/29 02:12:55;;;;;;;1.48;1.38;;;;;;;13.28;49.72;99186.19;6070510;23;20168;-86
2022/12/29 02:15:32;;;;;;;2.28;1.55;;;;;;;13.29;49.69;99198.44;6066378;23;20202;-86
2022/12/29 02:18:28;;;;;;;2.03;1.30;;;;;;;13.30;49.59;99197.44;6065599;23;20858;-86
2022/12/29 02:21:00;;;;;;;2.35;1.08;;;;;;;13.31;49.79;99198.28;6088872;23;20194;-86
2022/12/29 02:24:05;;;;;;;2.88;1.05;;;;;;;13.30;49.95;99199.25;6090279;23;20251;-87
2022/12/29 02:26:48;;;;;;;1.10;0.98;;;;;;;13.25;50.08;99197.78;6089180;23;20390;-86
2022/12/29 02:29:28;;;;;;;1.33;1.23;;;;;;;13.26;50.01;99201.31;6064879;23;20190;-86
2022/12/29 02:32:03;;;;;;;1.77;1.23;;;;;;;13.23;49.97;99199.72;6042533;23;20335;-87
2022/12/29 02:35:07;;;;;;;2.25;1.40;;;;;;;13.25;50.08;99196.97;6061290;23;20207;-86
2022/12/29 02:37:53;;;;;;;1.05;0.95;;;;;;;13.20;50.23;99185.94;6017316;23;20187;-86
2022/12/29 02:40:35;;;;;;;1.98;1.20;;;;;;;13.20;50.12;99183.31;6035752;23;20185;-86
2022/12/29 02:43:26;;;;;;;3.45;2.33;;;;;;;13.15;50.28;99194.25;6061019;23;20259;-86
2022/12/29 02:45:59;;;;;;;4.40;1.55;;;;;;;13.19;50.15;99181.63;6063906;23;20220;-86
2022/12/29 02:48:30;;;;;;;2.95;1.40;;;;;;;13.16;50.23;99182.72;6061326;23;20228;-86
2022/12/29 02:51:08;;;;;;;1.88;1.25;;;;;;;13.17;50.35;99186.19;6059002;23;20177;-86
2022/12/29 02:56:20;;;;;;;1.35;1.10;;;;;;;13.16;50.43;99187.16;6061169;23;20219;-86
2022/12/29 02:58:46;;;;;;;3.20;1.30;;;;;;;13.12;50.68;99180.44;6036305;23;20176;-85
2022/12/29 03:02:16;;;;;;;2.93;1.17;;;;;;;13.06;50.92;99189.69;6036130;23;20190;-86
2022/12/29 03:04:44;;;;;;;1.92;1.10;;;;;;;13.02;51.12;99169.81;6034798;23;20279;-86
2022/12/29 03:07:30;;;;;;;1.40;1.20;;;;;;;12.99;51.20;99173.53;6068245;23;20214;-87
2022/12/29 03:10:10;;;;;;;1.20;1.10;;;;;;;12.98;51.32;99176.28;6044542;23;20181;-86
2022/12/29 03:16:03;;;;;;;2.00;1.42;;;;;;;12.95;51.77;99163.38;6061676;23;20206;-86
2022/12/29 03:18:47;;;;;;;2.17;1.10;;;;;;;12.93;51.96;99170.56;6036212;23;20203;-86
2022/12/29 03:22:26;;;;;;;1.90;1.60;;;;;;;12.87;52.08;99156.06;6036205;23;20543;-87
2022/12/29 03:24:11;;;;;;;3.40;1.70;;;;;;;12.87;52.30;99157.88;6058970;23;20204;-86
2022/12/29 03:26:37;;;;;;;2.88;1.40;;;;;;;12.87;52.35;99153.44;6059736;23;20556;-86
2022/12/29 03:29:06;;;;;;;3.55;1.30;;;;;;;12.89;52.50;99158.59;6035701;23;20211;-86
2022/12/29 03:31:31;;;;;;;1.73;1.52;;;;;;;12.89;52.60;99148.06;6035034;23;20412;-86
2022/12/29 03:33:59;;;;;;;1.30;1.20;;;;;;;12.87;52.89;99140.25;6059461;23;20365;-86
2022/12/29 03:36:35;;;;;;;1.98;1.58;;;;;;;12.86;52.81;99117.50;6062027;23;20184;-87
2022/12/29 03:39:12;;;;;;;1.60;1.35;;;;;;;12.85;52.93;99110.53;6061633;23;20582;-87
2022/12/29 03:41:44;;;;;;;2.22;1.50;;;;;;;12.82;53.02;99110.78;6035413;23;20207;-86
2022/12/29 03:44:11;;;;;;;2.55;1.20;;;;;;;12.76;53.01;99112.13;6033323;23;20277;-86
2022/12/29 03:46:36;;;;;;;1.80;1.40;;;;;;;12.71;53.33;99138.00;6036026;23;20196;-86
2022/12/29 03:49:02;;;;;;;2.37;1.30;;;;;;;12.70;53.16;99131.06;6036015;23;20180;-86
2022/12/29 03:51:27;;;;;;;1.63;1.50;;;;;;;12.69;53.31;99142.59;6035336;23;20184;-86
2022/12/29 03:53:53;;;;;;;2.50;1.60;;;;;;;12.69;53.46;99144.34;6060252;23;20200;-86
2022/12/29 03:56:19;;;;;;;3.50;1.77;;;;;;;12.69;53.46;99147.00;6065146;23;20212;-85
2022/12/29 03:58:44;;;;;;;2.80;1.50;;;;;;;12.68;53.38;99140.06;6071962;23;20200;-85
2022/12/29 04:01:14;;;;;;;2.67;1.35;;;;;;;12.71;53.45;99139.81;6075604;23;20195;-84
2022/12/29 04:03:40;;;;;;;4.30;1.60;;;;;;;12.74;53.39;99147.47;6098293;23;20171;-85
2022/12/29 04:06:07;;;;;;;2.33;1.50;;;;;;;12.76;53.52;99146.38;6098079;23;20196;-85
2022/12/29 04:08:38;;;;;;;2.90;1.45;;;;;;;12.75;53.42;99130.72;6106690;23;20359;-85
2022/12/29 04:11:05;;;;;;;2.70;1.55;;;;;;;12.75;53.40;99136.81;6130513;23;20254;-85
2022/12/29 04:13:31;;;;;;;2.40;1.33;;;;;;;12.75;53.48;99133.34;6107841;23;20624;-85
2022/12/29 04:15:56;;;;;;;3.00;1.43;;;;;;;12.72;53.49;99133.56;6131391;23;20310;-85
2022/12/29 04:18:22;;;;;;;3.33;1.30;;;;;;;12.71;53.65;99138.00;6107560;23;20451;-85
2022/12/29 04:21:00;;;;;;;5.20;1.50;;;;;;;12.66;54.04;99137.53;6104823;23;20172;-84
2022/12/29 04:23:32;;;;;;;5.35;2.05;;;;;;;12.65;53.91;99135.88;6102774;23;20202;-85
2022/12/29 04:25:57;;;;;;;2.15;1.67;;;;;;;12.64;53.91;99131.56;6128969;23;20203;-85
2022/12/29 04:28:24;;;;;;;1.80;1.70;;;;;;;12.63;54.08;99138.59;6103543;23;20202;-85
2022/12/29 04:31:12;;;;;;;1.73;1.23;;;;;;;12.61;54.27;99135.28;6118301;23;20212;-84
2022/12/29 04:33:40;;;;;;;3.05;1.63;;;;;;;12.60;54.44;99130.13;6104529;23;20174;-85
2022/12/29 04:36:06;;;;;;;2.30;1.20;;;;;;;12.57;54.55;99131.19;6104066;23;20392;-85
2022/12/29 04:38:32;;;;;;;3.17;1.67;;;;;;;12.52;54.45;99133.38;6131094;23;20165;-85
2022/12/29 04:41:00;;;;;;;1.85;1.40;;;;;;;12.56;54.09;99120.81;6104999;23;20411;-85
2022/12/29 04:43:28;;;;;;;3.75;2.05;;;;;;;12.59;54.11;99123.19;6129623;23;20179;-84
2022/12/29 04:46:12;;;;;;;3.22;1.73;;;;;;;12.56;54.18;99113.72;6130775;23;20464;-85
2022/12/29 04:48:52;;;;;;;4.22;2.17;;;;;;;12.55;53.97;99122.56;6120329;23;20226;-85
2022/12/29 04:51:40;;;;;;;3.08;1.85;;;;;;;12.56;53.97;99115.53;6144548;23;20183;-84
2022/12/29 04:54:08;;;;;;;3.38;1.40;;;;;;;12.59;53.67;99116.13;6136192;23;20178;-85
2022/12/29 04:56:34;;;;;;;1.50;1.40;;;;;;;12.62;53.60;99120.31;6136321;23;20213;-85
2022/12/29 04:58:59;;;;;;;2.50;1.73;;;;;;;12.62;53.75;99109.78;6135944;23;20175;-85
2022/12/29 05:01:26;;;;;;;2.20;1.35;;;;;;;12.60;53.86;99109.88;6136889;23;20198;-85
2022/12/29 05:03:53;;;;;;;3.50;1.97;;;;;;;12.56;53.97;99111.09;6137137;23;20174;-84
2022/12/29 05:06:19;;;;;;;3.05;1.55;;;;;;;12.52;54.15;99114.09;6160666;23;20200;-85
2022/12/29 05:08:45;;;;;;;3.07;1.60;;;;;;;12.48;54.23;99112.69;6160919;23;20207;-85
2022/12/29 05:11:10;;;;;;;4.60;1.77;;;;;;;12.43;54.47;99118.31;6134939;23;20274;-84
2022/12/29 05:13:36;;;;;;;4.10;2.30;;;;;;;12.39;54.74;99106.31;6161133;23;20179;-85
2022/12/29 05:16:02;;;;;;;2.43;1.67;;;;;;;12.33;55.07;99096.28;6160073;23;20460;-85
2022/12/29 05:18:28;;;;;;;2.77;1.70;;;;;;;12.30;55.11;99110.53;6134766;23;20433;-84
2022/12/29 05:20:56;;;;;;;2.83;1.70;;;;;;;12.26;55.11;99090.66;6137252;23;20632;-85
2022/12/29 05:23:27;;;;;;;5.35;1.90;;;;;;;12.22;55.64;99093.66;6166283;23;20182;-85
2022/12/29 05:26:22;;;;;;;2.85;2.00;;;;;;;12.18;55.75;99093.06;6146622;23;20195;-84
2022/12/29 05:29:08;;;;;;;4.85;1.83;;;;;;;12.12;55.94;99096.16;6170318;23;20190;-84
2022/12/29 05:31:37;;;;;;;2.77;2.20;;;;;;;12.08;56.20;99095.56;6169783;23;20193;-84
2022/12/29 05:34:11;;;;;;;5.30;1.73;;;;;;;12.05;56.17;99094.97;6141996;23;20445;-84
2022/12/29 05:36:39;;;;;;;1.90;1.58;;;;;;;12.03;56.37;99092.47;6141015;23;20217;-83
2022/12/29 05:39:07;;;;;;;3.28;2.10;;;;;;;12.00;56.76;99082.16;6116257;23;20419;-84
2022/12/29 05:41:34;;;;;;;2.20;1.90;;;;;;;11.99;56.89;99085.78;6160955;23;20293;-84
2022/12/29 05:44:17;;;;;;;2.05;1.85;;;;;;;11.98;56.79;99070.09;6168441;23;20183;-84
2022/12/29 05:46:43;;;;;;;2.60;1.77;;;;;;;11.98;56.69;99073.56;6164959;23;20501;-85
2022/12/29 05:49:14;;;;;;;3.45;2.00;;;;;;;11.98;56.69;99081.44;6165898;23;20171;-84
2022/12/29 05:52:20;;;;;;;2.85;2.40;;;;;;;11.98;56.45;99070.09;6142240;23;20180;-85
2022/12/29 05:54:49;;;;;;;2.05;1.45;;;;;;;11.97;56.58;99069.25;6168836;23;20543;-84
2022/12/29 05:57:28;;;;;;;2.35;1.55;;;;;;;12.00;56.37;99063.75;6146707;23;20202;-86
2022/12/29 06:00:04;;;;;;;1.63;1.52;;;;;;;12.04;56.38;99062.53;6160676;23;20177;-86
2022/12/29 06:02:40;;;;;;;4.88;2.15;;;;;;;12.08;56.03;99052.63;6160437;23;20297;-86
2022/12/29 06:05:06;;;;;;;2.85;1.50;;;;;;;12.11;55.98;99065.53;6135203;23;20194;-86
2022/12/29 06:07:33;;;;;;;2.10;1.35;;;;;;;12.09;55.89;99059.53;6159271;23;20352;-87
2022/12/29 06:10:30;;;;;;;4.00;2.83;;;;;;;12.07;56.01;99056.19;6161886;23;20259;-85
2022/12/29 06:13:05;;;;;;;5.47;2.40;;;;;;;12.01;56.09;99044.34;6134106;23;20401;-86
2022/12/29 06:15:34;;;;;;;3.67;1.58;;;;;;;11.96;56.30;99046.50;6133999;23;20196;-86
2022/12/29 06:18:02;;;;;;;2.75;1.75;;;;;;;11.91;56.32;99043.41;6133404;23;20175;-87
2022/12/29 06:20:27;;;;;;;4.57;2.37;;;;;;;11.88;56.37;99044.50;6134144;23;20173;-86
2022/12/29 06:22:53;;;;;;;3.60;1.83;;;;;;;11.86;56.42;99056.09;6133981;23;20593;-86
2022/12/29 06:25:18;;;;;;;2.87;1.70;;;;;;;11.87;56.20;99048.06;6134218;23;20455;-88
2022/12/29 06:27:44;;;;;;;2.07;1.87;;;;;;;11.85;56.37;99042.03;6134453;23;20657;-85
2022/12/29 06:30:11;;;;;;;3.67;1.70;;;;;;;11.83;56.52;99040.53;6133141;23;20186;-85
2022/12/29 06:32:41;;;;;;;3.83;1.77;;;;;;;11.81;56.30;99043.25;6133126;23;20513;-86
2022/12/29 06:35:09;;;;;;;2.35;1.58;;;;;;;11.77;56.40;99043.59;6159694;23;20190;-87
2022/12/29 06:37:39;;;;;;;2.25;1.70;;;;;;;11.72;56.39;99036.09;6158480;23;20180;-85
2022/12/29 06:40:06;;;;;;;2.08;1.52;;;;;;;11.67;56.66;99033.81;6160993;23;20186;-85
2022/12/29 06:42:45;;;;;;;2.67;1.60;;;;;;;11.65;56.55;99037.50;6157135;23;20605;-85
2022/12/29 06:45:25;;;;;;;3.50;1.30;;;;;;;11.64;56.58;99034.03;6132105;23;20214;-85
2022/12/29 06:47:51;;;;;;;1.93;1.57;;;;;;;11.64;56.48;99030.59;6157126;23;20203;-85
2022/12/29 06:50:16;;;;;;;1.63;1.30;;;;;;;11.63;56.40;99028.88;6128678;23;20181;-86
2022/12/29 06:52:42;;;;;;;5.03;1.30;;;;;;;11.62;56.40;99029.84;6153831;23;20204;-85
2022/12/29 06:55:07;;;;;;;3.30;1.80;;;;;;;11.63;56.26;99028.88;6153702;23;20285;-85
2022/12/29 06:57:33;;;;;;;3.30;1.50;;;;;;;11.61;56.24;99026.41;6154462;23;20256;-87
2022/12/29 06:59:59;;;;;;;3.97;2.07;;;;;;;11.61;56.49;99041.31;6154353;23;20178;-85
2022/12/29 07:02:27;;;;;;;2.10;1.90;;;;;;;11.60;56.31;99035.22;6154382;23;20429;-85
2022/12/29 07:04:52;;;;;;;2.08;1.42;;;;;;;11.62;56.17;99037.75;6154350;23;20202;-86
2022/12/29 07:07:19;;;;;;;3.50;2.70;;;;;;;11.63;55.96;99045.50;6127739;23;20195;-85
2022/12/29 07:09:45;;;;;;;2.83;1.90;;;;;;;11.69;55.87;99052.94;6154168;23;20254;-85
2022/12/29 07:12:11;;;;;;;2.75;1.63;;;;;;;11.71;55.78;99045.75;6154808;23;20176;-85
2022/12/29 07:14:36;;;;;;;2.03;1.73;;;;;;;11.76;55.65;99057.72;6156768;23;20201;-85
2022/12/29 07:17:05;;;;;;;4.47;1.47;;;;;;;11.79;55.67;99065.38;6162266;23;20193;-85
2022/12/29 07:19:31;;;;;;;3.67;1.48;;;;;;;11.82;55.46;99078.28;6156132;23;20179;-85
2022/12/29 07:21:56;;;;;;;2.80;1.80;;;;;;;11.86;55.25;99071.88;6153367;23;20498;-86
2022/12/29 07:24:21;;;;;;;1.97;1.53;;;;;;;11.91;55.29;99075.84;6154327;23;20390;-85
2022/12/29 07:26:47;;;;;;;7.00;2.20;;;;;;;11.96;55.23;99083.34;6159579;23;20175;-85
2022/12/29 07:29:13;;;;;;;3.50;1.73;;;;;;;12.00;55.17;99089.22;6163236;23;20620;-85
2022/12/29 07:31:38;;;;;;;7.10;2.73;;;;;;;12.05;55.00;99094.97;6164943;23;20257;-85
2022/12/29 07:34:04;;;;;;;5.35;2.60;;;;;;;12.08;54.89;99087.66;6155434;23;20927;-86
2022/12/29 07:36:29;;;;;;;2.53;2.23;;;;;;;12.11;54.96;99112.94;6159250;23;20197;-85
2022/12/29 07:38:55;;;;;;;2.77;1.77;;;;;;;12.13;54.75;99103.94;6153778;23;20171;-85
2022/12/29 07:41:20;;;;;;;5.90;3.03;;;;;;;12.20;54.53;99098.19;6153777;23;20601;-85
2022/12/29 07:43:48;;;;;;;4.40;2.57;;;;;;;12.25;54.44;99107.41;6153052;23;20220;-85
2022/12/29 07:46:32;;;;;;;16.80;10.18;;;;;;;12.29;54.45;99111.50;6107222;23;20190;-85
2022/12/29 07:48:58;;;;;;;21.57;11.20;;;;;;;12.33;54.45;99109.44;6127080;23;20210;-85
2022/12/29 07:51:24;;;;;;;14.87;8.23;;;;;;;12.37;54.40;99122.25;6153827;23;20179;-88
2022/12/29 07:53:50;;;;;;;4.07;2.45;;;;;;;12.38;54.36;99115.19;6153350;23;20222;-85
2022/12/29 07:56:15;;;;;;;2.67;2.07;;;;;;;12.39;54.33;99124.75;6153434;23;20205;-85
2022/12/29 07:58:41;;;;;;;2.70;1.63;;;;;;;12.40;54.47;99115.91;6154108;23;20252;-86
2022/12/29 08:01:07;;;;;;;3.85;2.65;;;;;;;12.39;54.51;99133.53;6154257;23;20510;-85
2022/12/29 08:03:36;;;;;;;3.43;2.00;;;;;;;12.40;54.66;99115.91;6154402;23;20409;-85
2022/12/29 08:06:01;;;;;;;1.92;1.60;;;;;;;12.40;55.04;99129.91;6153373;23;20242;-85
2022/12/29 08:08:27;;;;;;;2.93;2.00;;;;;;;12.39;55.19;99141.41;6154951;23;20252;-85
2022/12/29 08:10:52;;;;;;;2.87;2.30;;;;;;;12.40;55.23;99131.72;6155120;23;20234;-85
2022/12/29 08:13:17;;;;;;;2.60;2.40;;;;;;;12.40;55.29;99140.44;6154665;23;20250;-85
2022/12/29 08:15:43;;;;;;;2.07;1.77;;;;;;;12.38;55.35;99137.09;6154609;23;20703;-85
2022/12/29 08:18:33;;;;;;;3.90;2.33;;;;;;;12.37;55.62;99151.22;6129149;23;20193;-85
2022/12/29 08:21:04;;;;;;;6.57;3.08;;;;;;;12.37;55.72;99143.31;6157360;23;20175;-85
2022/12/29 08:23:30;;;;;;;4.50;2.42;;;;;;;12.37;55.81;99153.03;6156277;23;20623;-85
2022/12/29 08:26:00;;;;;;;2.73;2.23;;;;;;;12.39;55.98;99151.09;6162560;23;20270;-87
2022/12/29 08:28:26;;;;;;;2.95;1.95;;;;;;;12.39;56.01;99151.97;6154512;23;20199;-85
2022/12/29 08:30:51;;;;;;;6.10;2.77;;;;;;;12.43;55.76;99162.25;6156580;23;20233;-85
2022/12/29 08:33:17;;;;;;;6.03;4.13;;;;;;;12.44;55.77;99172.63;6156685;23;20457;-85
2022/12/29 08:35:42;;;;;;;9.43;6.60;;;;;;;12.47;55.36;99169.75;6158418;23;20193;-86
2022/12/29 08:38:08;;;;;;;2.00;1.67;;;;;;;12.57;54.87;99169.88;6156569;23;20249;-85
2022/12/29 08:40:33;;;;;;;2.10;1.17;;;;;;;12.72;54.45;99170.47;6128958;23;20265;-88
2022/12/29 08:42:59;;;;;;;4.77;2.57;;;;;;;12.84;54.47;99172.97;6157434;23;20210;-85
2022/12/29 08:45:24;;;;;;;1.63;1.27;;;;;;;12.92;54.06;99166.25;6155212;23;20202;-84
2022/12/29 08:47:50;;;;;;;1.80;1.00;;;;;;;13.03;53.62;99174.97;6128905;23;20202;-85
2022/12/29 08:50:15;;;;;;;4.40;1.30;;;;;;;13.18;53.00;99161.50;6157476;23;20210;-85
2022/12/29 08:52:40;;;;;;;2.43;2.00;;;;;;;13.27;52.78;99155.50;6157005;23;20198;-86
2022/12/29 08:55:06;;;;;;;2.27;1.40;;;;;;;13.37;52.65;99166.16;6158381;23;20207;-85
2022/12/29 08:57:32;;;;;;;1.17;1.07;;;;;;;13.40;52.44;99169.38;6135826;23;20239;-84
2022/12/29 09:00:09;;;;;;;3.13;1.60;;;;;;;13.45;52.43;99166.34;6139124;23;20179;-85
2022/12/29 09:02:35;;;;;;;1.65;1.52;;;;;;;13.48;52.40;99169.56;6138646;23;20190;-84
2022/12/29 09:05:01;;;;;;;3.03;1.70;;;;;;;13.50;52.56;99169.44;6163185;23;20395;-86
2022/12/29 09:07:26;;;;;;;4.23;2.03;;;;;;;13.51;52.53;99181.66;6163330;23;20475;-84
2022/12/29 09:09:51;;;;;;;1.23;1.10;;;;;;;13.52;52.59;99195.69;6163716;23;20183;-84
2022/12/29 09:12:17;;;;;;;1.20;1.10;;;;;;;13.55;52.21;99176.97;6162126;23;20172;-85
2022/12/29 09:14:44;;;;;;;2.10;1.90;;;;;;;13.60;52.28;99191.44;6160794;23;20205;-86
2022/12/29 09:19:54;;;;;;;3.33;1.85;;;;;;;13.70;52.02;99191.53;6159218;23;20253;-85
2022/12/29 09:22:19;;;;;;;5.70;4.10;;;;;;;13.75;51.75;99199.91;6133166;23;20187;-88
2022/12/29 09:24:45;;;;;;;2.97;2.37;;;;;;;13.77;51.70;99192.72;6106986;23;20187;-85
2022/12/29 09:27:10;;;;;;;1.97;1.30;;;;;;;13.81;51.71;99195.94;6156517;23;20210;-84
2022/12/29 09:29:36;;;;;;;6.33;2.67;;;;;;;13.88;51.70;99192.66;6159167;23;20166;-85
2022/12/29 09:32:01;;;;;;;6.63;2.87;;;;;;;13.93;51.58;99201.03;6120772;23;20507;-85
2022/12/29 09:34:27;;;;;;;4.03;2.40;;;;;;;14.00;51.67;99197.84;6129004;23;20431;-84
2022/12/29 09:36:52;;;;;;;2.53;1.40;;;;;;;14.07;51.57;99199.00;6129089;23;20227;-86
2022/12/29 09:39:18;;;;;;;5.43;1.93;;;;;;;14.12;51.34;99195.03;6128372;23;20174;-85
2022/12/29 09:41:57;;;;;;;3.37;2.60;;;;;;;14.17;51.26;99211.28;6128041;23;20179;-85
2022/12/29 09:44:44;;;;;;;2.22;1.60;;;;;;;14.23;51.13;99209.97;6127177;23;20175;-85
2022/12/29 09:47:13;;;;;;;3.97;2.30;;;;;;;14.36;51.21;99205.28;6127305;23;20638;-85
2022/12/29 09:49:49;;;;;;;7.50;1.90;;;;;;;14.46;51.23;99215.91;6100021;23;20174;-85
2022/12/29 09:52:37;;;;;;;4.10;1.75;;;;;;;14.51;51.46;99212.88;6127783;23;20169;-85
2022/12/29 09:55:11;;;;;;;3.90;3.60;;;;;;;14.52;51.58;99211.88;6120496;23;20199;-84
2022/12/29 09:57:47;;;;;;;2.35;1.75;;;;;;;14.49;52.05;99206.88;6110949;23;20195;-84
2022/12/29 10:00:18;;;;;;;3.55;2.25;;;;;;;14.47;52.63;99208.81;6109054;23;20163;-85
2022/12/29 10:02:49;;;;;;;3.15;2.88;;;;;;;14.40;53.23;99213.78;6113192;23;20228;-85
2022/12/29 10:05:29;;;;;;;3.63;3.03;;;;;;;14.37;53.64;99201.69;6103710;23;20641;-86
2022/12/29 10:08:19;;;;;;;2.28;1.48;;;;;;;14.27;54.17;99210.53;6090311;23;20215;-86
2022/12/29 10:10:53;;;;;;;2.58;1.40;;;;;;;14.24;54.12;99206.34;6090860;23;20728;-85
2022/12/29 10:13:33;;;;;;;8.50;2.95;;;;;;;14.21;54.64;99209.25;6092013;23;20792;-85
2022/12/29 10:16:25;;;;;;;3.53;2.38;;;;;;;14.16;54.82;99203.50;6092553;23;20198;-86
2022/12/29 10:19:06;;;;;;;1.73;1.63;;;;;;;14.13;55.16;99209.88;6091305;23;20251;-85
2022/12/29 10:21:49;;;;;;;4.63;1.42;;;;;;;14.09;55.25;99202.34;6092185;23;20495;-85
2022/12/29 10:24:18;;;;;;;4.00;2.20;;;;;;;14.06;55.28;99195.53;6091213;23;20630;-86
2022/12/29 10:26:46;;;;;;;7.20;3.85;;;;;;;14.12;55.11;99200.31;6090884;23;20518;-86
2022/12/29 10:29:27;;;;;;;4.28;2.10;;;;;;;14.14;55.25;99194.88;6090073;23;20223;-86
2022/12/29 10:32:00;;;;;;;3.83;2.30;;;;;;;14.17;54.88;99191.97;6065290;23;20523;-86
2022/12/29 10:34:34;;;;;;;3.95;1.75;;;;;;;14.19;55.08;99189.22;6091688;23;20183;-86
2022/12/29 10:37:09;;;;;;;1.95;1.73;;;;;;;14.19;55.13;99187.41;6091161;23;20176;-86
2022/12/29 10:39:45;;;;;;;1.95;1.60;;;;;;;14.23;55.09;99191.47;6090701;23;20178;-86
2022/12/29 10:42:26;;;;;;;1.70;1.60;;;;;;;14.20;55.11;99190.88;6089603;23;20491;-85
2022/12/29 10:44:52;;;;;;;2.88;1.65;;;;;;;14.17;55.18;99194.59;6090663;23;20191;-85
2022/12/29 10:47:24;;;;;;;4.18;1.83;;;;;;;14.15;55.41;99200.03;6064221;23;20208;-87
2022/12/29 10:49:50;;;;;;;3.47;1.83;;;;;;;14.12;55.64;99199.44;6090565;23;20180;-85
2022/12/29 10:52:19;;;;;;;3.30;2.07;;;;;;;14.10;56.34;99191.66;6090136;23;20563;-85
2022/12/29 10:54:57;;;;;;;2.75;1.40;;;;;;;14.03;57.49;99184.38;6090212;23;20414;-86
2022/12/29 10:57:43;;;;;;;4.30;2.08;;;;;;;14.04;57.83;99183.41;6060840;23;20228;-86
2022/12/29 11:00:14;;;;;;;1.90;1.70;;;;;;;13.98;57.98;99186.56;6091302;23;20638;-85
2022/12/29 11:03:06;;;;;;;3.25;2.08;;;;;;;13.94;58.16;99178.91;6092009;23;20172;-86
2022/12/29 11:05:50;;;;;;;1.42;1.20;;;;;;;13.87;58.46;99161.91;6091508;23;20206;-85
2022/12/29 11:08:25;;;;;;;3.97;2.20;;;;;;;13.91;58.54;99170.44;6092005;23;20202;-86
2022/12/29 11:11:03;;;;;;;2.42;1.70;;;;;;;13.99;58.35;99161.84;6092459;23;20279;-86
2022/12/29 11:13:31;;;;;;;2.35;2.00;;;;;;;14.05;58.34;99159.53;6090905;23;20211;-85
2022/12/29 11:15:56;;;;;;;2.70;1.80;;;;;;;14.11;57.67;99169.56;6084189;23;20212;-86
2022/12/29 11:18:37;;;;;;;4.83;2.37;;;;;;;14.15;57.26;99175.44;6093218;23;20635;-85
2022/12/29 11:21:25;;;;;;;5.63;2.35;;;;;;;14.20;56.71;99170.56;6091294;23;20449;-86
2022/12/29 11:24:05;;;;;;;3.42;1.65;;;;;;;14.20;57.15;99167.94;6091892;23;20234;-86
2022/12/29 11:26:32;;;;;;;4.18;1.88;;;;;;;14.12;58.04;99170.38;6091749;23;20197;-86
2022/12/29 11:29:07;;;;;;;2.67;1.75;;;;;;;14.04;58.67;99157.00;6091689;23;20414;-85
2022/12/29 11:31:46;;;;;;;4.88;1.65;;;;;;;13.99;59.26;99157.41;6091284;23;20179;-85
2022/12/29 11:34:23;;;;;;;2.28;1.80;;;;;;;13.97;59.27;99150.59;6090598;23;20673;-86
2022/12/29 11:36:51;;;;;;;3.67;1.75;;;;;;;14.07;59.11;99152.31;6092533;23;20519;-87
2022/12/29 11:39:28;;;;;;;4.43;2.15;;;;;;;14.17;59.06;99147.91;6090011;23;20180;-86
2022/12/29 11:41:53;;;;;;;2.55;1.80;;;;;;;14.30;58.68;99150.31;6090931;23;20192;-86
2022/12/29 11:44:19;;;;;;;2.40;1.83;;;;;;;14.38;58.21;99145.22;6091031;23;20177;-86
2022/12/29 11:46:50;;;;;;;3.47;1.87;;;;;;;14.42;57.80;99140.53;6091646;23;20195;-85
2022/12/29 11:49:26;;;;;;;4.30;2.55;;;;;;;14.44;57.25;99143.84;6065856;23;21053;-85
2022/12/29 11:51:57;;;;;;;2.35;2.05;;;;;;;14.47;57.11;99143.56;6090766;23;20199;-85
2022/12/29 11:54:27;;;;;;;4.22;2.47;;;;;;;14.51;56.94;99150.28;6091005;23;20173;-85
2022/12/29 11:56:54;;;;;;;2.78;2.10;;;;;;;14.52;56.54;99145.81;6091375;23;20239;-85
2022/12/29 11:59:31;;;;;;;1.90;1.70;;;;;;;14.56;56.02;99141.97;6090350;23;20204;-85
2022/12/29 12:01:59;;;;;;;3.70;1.65;;;;;;;14.62;55.92;99136.16;6089606;23;20655;-86
2022/12/29 12:04:28;;;;;;;1.67;1.50;;;;;;;14.72;55.80;99128.25;6065959;23;20444;-85
2022/12/29 12:07:17;;;;;;;3.65;1.88;;;;;;;14.84;55.24;99121.88;6090992;23;20169;-86
2022/12/29 12:09:51;;;;;;;2.92;1.95;;;;;;;14.94;55.09;99130.66;6091485;23;20194;-86
2022/12/29 12:12:32;;;;;;;1.60;1.50;;;;;;;15.00;54.71;99113.41;6067957;23;20179;-86
2022/12/29 12:15:01;;;;;;;1.63;1.50;;;;;;;14.99;54.67;99122.31;6066878;23;20660;-86
2022/12/29 12:17:55;;;;;;;2.40;1.55;;;;;;;14.96;54.44;99117.28;6092881;23;20185;-85
2022/12/29 12:20:29;;;;;;;2.85;1.85;;;;;;;14.96;54.59;99117.28;6093320;23;20239;-86
2022/12/29 12:23:02;;;;;;;1.17;1.08;;;;;;;14.89;54.28;99110.88;6090166;23;20169;-86
2022/12/29 12:25:37;;;;;;;1.42;1.25;;;;;;;14.83;54.50;99122.84;6092534;23;20283;-86
2022/12/29 12:28:17;;;;;;;2.75;1.27;;;;;;;14.77;54.64;99113.66;6092832;23;20253;-86
2022/12/29 12:30:49;;;;;;;2.03;1.60;;;;;;;14.71;54.96;99122.09;6092764;23;20441;-87